createdAt,value
2019-03-01T00:00:38.862Z,-76
2019-03-01T00:01:38.932Z,-77
2019-03-01T00:02:39.198Z,-75
2019-03-01T00:03:38.873Z,-75
2019-03-01T00:04:38.902Z,-78
2019-03-01T00:05:38.886Z,-77
2019-03-01T00:06:38.885Z,-78
2019-03-01T00:07:38.821Z,-76
2019-03-01T00:08:38.887Z,-77
2019-03-01T00:09:38.874Z,-77
2019-03-01T00:10:38.861Z,-76
2019-03-01T00:11:38.867Z,-74
2019-03-01T00:12:38.868Z,-77
2019-03-01T00:13:38.875Z,-76
2019-03-01T00:14:38.874Z,-77
2019-03-01T00:15:38.862Z,-77
2019-03-01T00:16:38.875Z,-77
2019-03-01T00:17:38.827Z,-77
2019-03-01T00:18:38.852Z,-77
2019-03-01T00:19:38.842Z,-78
2019-03-01T00:20:38.807Z,-77
2019-03-01T00:21:38.821Z,-77
2019-03-01T00:22:38.883Z,-77
2019-03-01T00:23:38.852Z,-77
2019-03-01T00:24:38.959Z,-77
2019-03-01T00:25:38.867Z,-76
2019-03-01T00:26:38.877Z,-75
2019-03-01T00:27:48.560Z,-78
2019-03-01T00:28:38.901Z,-77
2019-03-01T00:29:38.846Z,-77
2019-03-01T00:30:38.812Z,-78
2019-03-01T00:31:38.817Z,-78
2019-03-01T00:32:38.852Z,-78
2019-03-01T00:33:38.877Z,-78
2019-03-01T00:34:38.850Z,-78
2019-03-01T00:35:38.829Z,-77
2019-03-01T00:36:38.814Z,-77
2019-03-01T00:37:38.827Z,-78
2019-03-01T00:38:38.848Z,-76
2019-03-01T00:39:38.855Z,-77
2019-03-01T00:40:38.841Z,-77
2019-03-01T00:41:38.803Z,-78
2019-03-01T00:42:38.856Z,-78
2019-03-01T00:43:38.924Z,-79
2019-03-01T00:44:38.900Z,-78
2019-03-01T00:45:38.873Z,-78
2019-03-01T00:46:38.772Z,-78
2019-03-01T00:47:38.775Z,-77
2019-03-01T00:48:38.776Z,-76
2019-03-01T00:49:38.796Z,-77
2019-03-01T00:50:38.812Z,-77
2019-03-01T00:51:38.785Z,-79
2019-03-01T00:52:38.814Z,-78
2019-03-01T00:53:38.835Z,-78
2019-03-01T00:54:38.891Z,-78
2019-03-01T00:55:38.765Z,-78
2019-03-01T00:56:38.861Z,-78
2019-03-01T00:57:38.833Z,-77
2019-03-01T00:58:38.751Z,-78
2019-03-01T00:59:38.803Z,-78
2019-03-01T01:00:38.752Z,-77
2019-03-01T01:01:38.939Z,-77
2019-03-01T01:02:38.764Z,-77
2019-03-01T01:03:38.879Z,-77
2019-03-01T01:04:38.784Z,-77
2019-03-01T01:05:38.778Z,-78
2019-03-01T01:06:38.810Z,-79
2019-03-01T01:07:38.750Z,-76
2019-03-01T01:08:38.800Z,-76
2019-03-01T01:09:38.743Z,-78
2019-03-01T01:10:38.790Z,-78
2019-03-01T01:11:38.803Z,-78
2019-03-01T01:12:38.734Z,-78
2019-03-01T01:13:38.742Z,-77
2019-03-01T01:14:38.746Z,-77
2019-03-01T01:15:38.744Z,-77
2019-03-01T01:16:38.749Z,-77
2019-03-01T01:17:38.764Z,-77
2019-03-01T01:18:38.763Z,-77
2019-03-01T01:19:38.760Z,-77
2019-03-01T01:20:38.758Z,-78
2019-03-01T01:21:38.785Z,-78
2019-03-01T01:22:38.722Z,-79
2019-03-01T01:23:38.751Z,-78
2019-03-01T01:24:38.734Z,-77
2019-03-01T01:25:38.753Z,-78
2019-03-01T01:26:38.770Z,-77
2019-03-01T01:27:38.733Z,-78
2019-03-01T01:28:38.779Z,-76
2019-03-01T01:29:38.806Z,-77
2019-03-01T01:30:38.762Z,-76
2019-03-01T01:31:38.751Z,-78
2019-03-01T01:32:38.738Z,-78
2019-03-01T01:33:38.942Z,-78
2019-03-01T01:34:38.780Z,-76
2019-03-01T01:35:38.697Z,-77
2019-03-01T01:36:38.759Z,-78
2019-03-01T01:37:38.747Z,-79
2019-03-01T01:38:38.719Z,-77
2019-03-01T01:39:38.725Z,-77
2019-03-01T01:40:38.709Z,-78
2019-03-01T01:41:38.732Z,-78
2019-03-01T01:42:38.720Z,-78
2019-03-01T01:43:38.777Z,-78
2019-03-01T01:44:38.835Z,-78
2019-03-01T01:45:38.701Z,-77
2019-03-01T01:46:38.720Z,-78
2019-03-01T01:47:38.761Z,-77
2019-03-01T01:48:38.711Z,-78
2019-03-01T01:49:38.694Z,-77
2019-03-01T01:50:38.709Z,-77
2019-03-01T01:51:38.700Z,-77
2019-03-01T01:52:38.702Z,-76
2019-03-01T01:53:38.711Z,-76
2019-03-01T01:54:38.728Z,-78
2019-03-01T01:55:38.730Z,-76
2019-03-01T01:56:38.722Z,-77
2019-03-01T01:57:38.686Z,-77
2019-03-01T01:58:38.732Z,-79
2019-03-01T01:59:38.685Z,-77
2019-03-01T02:00:38.687Z,-78
2019-03-01T02:01:38.697Z,-77
2019-03-01T02:02:38.704Z,-76
2019-03-01T02:03:38.700Z,-77
2019-03-01T02:04:38.710Z,-79
2019-03-01T02:05:38.899Z,-76
2019-03-01T02:06:38.685Z,-75
2019-03-01T02:07:38.722Z,-76
2019-03-01T02:08:38.686Z,-76
2019-03-01T02:09:38.686Z,-78
2019-03-01T02:10:38.663Z,-77
2019-03-01T02:11:38.677Z,-78
2019-03-01T02:12:38.726Z,-77
2019-03-01T02:13:38.657Z,-78
2019-03-01T02:14:38.666Z,-77
2019-03-01T02:15:38.678Z,-77
2019-03-01T02:16:38.660Z,-77
2019-03-01T02:17:38.658Z,-77
2019-03-01T02:18:38.668Z,-77
2019-03-01T02:19:38.699Z,-77
2019-03-01T02:20:38.643Z,-79
2019-03-01T02:21:38.712Z,-77
2019-03-01T02:22:38.664Z,-78
2019-03-01T02:23:40.499Z,-78
2019-03-01T02:24:38.670Z,-77
2019-03-01T02:25:38.645Z,-78
2019-03-01T02:26:38.650Z,-78
2019-03-01T02:27:39.577Z,-75
2019-03-01T02:28:38.664Z,-78
2019-03-01T02:29:38.708Z,-78
2019-03-01T02:30:38.697Z,-77
2019-03-01T02:31:38.734Z,-78
2019-03-01T02:32:38.706Z,-76
2019-03-01T02:33:38.668Z,-77
2019-03-01T02:34:38.655Z,-78
2019-03-01T02:35:38.666Z,-77
2019-03-01T02:36:38.709Z,-77
2019-03-01T02:37:38.766Z,-78
2019-03-01T02:38:38.685Z,-79
2019-03-01T02:39:38.641Z,-77
2019-03-01T02:40:38.703Z,-77
2019-03-01T02:41:38.964Z,-77
2019-03-01T02:42:38.656Z,-77
2019-03-01T02:43:38.695Z,-79
2019-03-01T02:44:38.667Z,-77
2019-03-01T02:45:38.676Z,-78
2019-03-01T02:46:38.632Z,-78
2019-03-01T02:47:38.748Z,-78
2019-03-01T02:48:38.745Z,-77
2019-03-01T02:49:38.641Z,-78
2019-03-01T02:50:38.680Z,-79
2019-03-01T02:51:38.666Z,-77
2019-03-01T02:52:38.666Z,-77
2019-03-01T02:53:38.676Z,-77
2019-03-01T02:54:38.728Z,-77
2019-03-01T02:55:38.687Z,-77
2019-03-01T02:56:38.682Z,-77
2019-03-01T02:57:38.704Z,-76
2019-03-01T02:58:38.678Z,-78
2019-03-01T02:59:38.646Z,-77
2019-03-01T03:00:38.766Z,-79
2019-03-01T03:01:38.630Z,-77
2019-03-01T03:02:38.683Z,-77
2019-03-01T03:03:38.626Z,-78
2019-03-01T03:04:38.702Z,-77
2019-03-01T03:05:38.665Z,-78
2019-03-01T03:06:38.691Z,-77
2019-03-01T03:07:38.623Z,-78
2019-03-01T03:08:38.713Z,-78
2019-03-01T03:09:38.696Z,-77
2019-03-01T03:10:38.658Z,-77
2019-03-01T03:11:38.651Z,-78
2019-03-01T03:12:38.672Z,-78
2019-03-01T03:13:38.656Z,-77
2019-03-01T03:14:38.680Z,-77
2019-03-01T03:15:38.665Z,-78
2019-03-01T03:16:38.626Z,-77
2019-03-01T03:17:38.694Z,-78
2019-03-01T03:18:38.605Z,-77
2019-03-01T03:19:38.588Z,-77
2019-03-01T03:20:38.622Z,-79
2019-03-01T03:21:38.627Z,-79
2019-03-01T03:22:38.616Z,-77
2019-03-01T03:23:38.583Z,-78
2019-03-01T03:24:38.652Z,-77
2019-03-01T03:25:38.774Z,-76
2019-03-01T03:26:38.596Z,-78
2019-03-01T03:27:38.579Z,-77
2019-03-01T03:28:38.618Z,-77
2019-03-01T03:29:38.609Z,-77
2019-03-01T03:30:38.635Z,-77
2019-03-01T03:31:38.741Z,-77
2019-03-01T03:32:38.682Z,-77
2019-03-01T03:33:38.959Z,-78
2019-03-01T03:34:38.722Z,-77
2019-03-01T03:35:38.664Z,-78
2019-03-01T03:36:38.607Z,-78
2019-03-01T03:37:38.588Z,-76
2019-03-01T03:38:38.623Z,-78
2019-03-01T03:39:38.609Z,-79
2019-03-01T03:40:38.658Z,-76
2019-03-01T03:41:38.701Z,-75
2019-03-01T03:42:38.637Z,-76
2019-03-01T03:43:38.559Z,-76
2019-03-01T03:44:38.574Z,-77
2019-03-01T03:45:38.590Z,-76
2019-03-01T03:46:38.551Z,-76
2019-03-01T03:47:38.579Z,-77
2019-03-01T03:48:38.603Z,-76
2019-03-01T03:49:38.612Z,-75
2019-03-01T03:50:38.614Z,-76
2019-03-01T03:51:38.633Z,-76
2019-03-01T03:52:38.569Z,-76
2019-03-01T03:53:38.899Z,-76
2019-03-01T03:54:38.572Z,-77
2019-03-01T03:55:38.598Z,-77
2019-03-01T03:56:38.585Z,-76
2019-03-01T03:57:38.526Z,-77
2019-03-01T03:58:38.783Z,-76
2019-03-01T03:59:38.591Z,-77
2019-03-01T04:00:38.559Z,-77
2019-03-01T04:01:38.576Z,-76
2019-03-01T04:02:38.571Z,-75
2019-03-01T04:03:38.556Z,-77
2019-03-01T04:04:38.623Z,-77
2019-03-01T04:05:38.626Z,-77
2019-03-01T04:06:38.576Z,-77
2019-03-01T04:07:38.562Z,-77
2019-03-01T04:08:38.665Z,-77
2019-03-01T04:09:38.581Z,-77
2019-03-01T04:10:38.642Z,-77
2019-03-01T04:11:38.620Z,-77
2019-03-01T04:12:38.567Z,-76
2019-03-01T04:13:38.579Z,-77
2019-03-01T04:14:38.554Z,-76
2019-03-01T04:15:38.640Z,-76
2019-03-01T04:16:38.681Z,-77
2019-03-01T04:17:38.522Z,-77
2019-03-01T04:18:38.628Z,-75
2019-03-01T04:19:38.557Z,-77
2019-03-01T04:20:38.541Z,-77
2019-03-01T04:21:38.579Z,-77
2019-03-01T04:22:38.518Z,-77
2019-03-01T04:23:38.644Z,-76
2019-03-01T04:24:38.521Z,-77
2019-03-01T04:25:38.520Z,-77
2019-03-01T04:26:38.554Z,-77
2019-03-01T04:27:38.514Z,-76
2019-03-01T04:28:38.576Z,-76
2019-03-01T04:29:38.606Z,-77
2019-03-01T04:30:38.545Z,-77
2019-03-01T04:31:38.519Z,-77
2019-03-01T04:32:38.505Z,-77
2019-03-01T04:33:38.533Z,-77
2019-03-01T04:34:38.549Z,-78
2019-03-01T04:35:38.525Z,-77
2019-03-01T04:36:38.634Z,-77
2019-03-01T04:37:38.538Z,-78
2019-03-01T04:38:38.521Z,-79
2019-03-01T04:39:38.521Z,-76
2019-03-01T04:40:38.497Z,-76
2019-03-01T04:41:38.518Z,-76
2019-03-01T04:42:38.496Z,-76
2019-03-01T04:43:38.507Z,-77
2019-03-01T04:44:38.556Z,-76
2019-03-01T04:45:38.519Z,-75
2019-03-01T04:46:38.502Z,-79
2019-03-01T04:47:38.533Z,-76
2019-03-01T04:48:38.516Z,-77
2019-03-01T04:49:38.500Z,-77
2019-03-01T04:50:38.476Z,-77
2019-03-01T04:51:40.691Z,-77
2019-03-01T04:52:38.470Z,-77
2019-03-01T04:53:38.496Z,-77
2019-03-01T04:54:38.515Z,-77
2019-03-01T04:55:38.502Z,-75
2019-03-01T04:56:38.477Z,-75
2019-03-01T04:57:38.480Z,-78
2019-03-01T04:58:38.490Z,-77
2019-03-01T04:59:38.467Z,-76
2019-03-01T05:00:38.478Z,-77
2019-03-01T05:01:38.456Z,-79
2019-03-01T05:02:38.504Z,-77
2019-03-01T05:03:38.471Z,-78
2019-03-01T05:04:38.444Z,-77
2019-03-01T05:05:38.449Z,-77
2019-03-01T05:06:38.451Z,-75
2019-03-01T05:07:38.502Z,-76
2019-03-01T05:08:38.444Z,-78
2019-03-01T05:09:38.448Z,-77
2019-03-01T05:10:38.456Z,-77
2019-03-01T05:11:38.446Z,-77
2019-03-01T05:12:38.486Z,-77
2019-03-01T05:13:38.443Z,-76
2019-03-01T05:14:38.443Z,-77
2019-03-01T05:15:38.425Z,-77
2019-03-01T05:16:38.430Z,-78
2019-03-01T05:17:38.430Z,-75
2019-03-01T05:18:38.447Z,-77
2019-03-01T05:19:38.442Z,-77
2019-03-01T05:20:38.863Z,-77
2019-03-01T05:21:38.495Z,-77
2019-03-01T05:22:38.433Z,-77
2019-03-01T05:23:38.490Z,-77
2019-03-01T05:24:38.437Z,-77
2019-03-01T05:25:38.426Z,-77
2019-03-01T05:26:38.443Z,-77
2019-03-01T05:27:38.540Z,-77
2019-03-01T05:28:39.674Z,-75
2019-03-01T05:29:38.410Z,-76
2019-03-01T05:30:38.438Z,-75
2019-03-01T05:31:38.424Z,-75
2019-03-01T05:32:38.430Z,-77
2019-03-01T05:33:38.429Z,-78
2019-03-01T05:34:38.422Z,-77
2019-03-01T05:35:38.395Z,-79
2019-03-01T05:36:38.450Z,-76
2019-03-01T05:37:38.410Z,-76
2019-03-01T05:38:38.451Z,-77
2019-03-01T05:39:38.423Z,-77
2019-03-01T05:40:38.405Z,-77
2019-03-01T05:41:38.461Z,-77
2019-03-01T05:42:38.446Z,-76
2019-03-01T05:43:38.393Z,-77
2019-03-01T05:44:38.404Z,-77
2019-03-01T05:45:38.394Z,-76
2019-03-01T05:46:38.398Z,-77
2019-03-01T05:47:38.394Z,-79
2019-03-01T05:48:39.586Z,-75
2019-03-01T05:49:38.390Z,-77
2019-03-01T05:50:38.392Z,-77
2019-03-01T05:51:38.454Z,-76
2019-03-01T05:52:38.393Z,-77
2019-03-01T05:53:38.402Z,-77
2019-03-01T05:54:38.407Z,-77
2019-03-01T05:55:38.403Z,-78
2019-03-01T05:56:38.379Z,-77
2019-03-01T05:57:38.376Z,-75
2019-03-01T05:58:38.404Z,-75
2019-03-01T05:59:38.416Z,-75
2019-03-01T06:00:38.413Z,-77
2019-03-01T06:01:38.382Z,-77
2019-03-01T06:02:38.552Z,-76
2019-03-01T06:03:38.552Z,-75
2019-03-01T06:04:38.388Z,-77
2019-03-01T06:05:38.372Z,-76
2019-03-01T06:06:38.403Z,-76
2019-03-01T06:07:38.410Z,-77
2019-03-01T06:08:38.374Z,-76
2019-03-01T06:09:38.380Z,-76
2019-03-01T06:10:38.360Z,-77
2019-03-01T06:11:38.319Z,-77
2019-03-01T06:12:38.366Z,-77
2019-03-01T06:13:38.371Z,-77
2019-03-01T06:14:38.359Z,-77
2019-03-01T06:15:38.339Z,-79
2019-03-01T06:16:40.505Z,-78
2019-03-01T06:17:38.356Z,-78
2019-03-01T06:18:38.359Z,-77
2019-03-01T06:19:38.377Z,-77
2019-03-01T06:20:38.385Z,-78
2019-03-01T06:21:38.342Z,-77
2019-03-01T06:22:38.383Z,-77
2019-03-01T06:23:38.367Z,-76
2019-03-01T06:24:38.401Z,-78
2019-03-01T06:25:38.375Z,-78
2019-03-01T06:26:38.384Z,-76
2019-03-01T06:27:38.395Z,-78
2019-03-01T06:28:38.413Z,-78
2019-03-01T06:29:38.325Z,-78
2019-03-01T06:30:38.352Z,-77
2019-03-01T06:31:38.315Z,-77
2019-03-01T06:32:38.318Z,-77
2019-03-01T06:33:38.340Z,-78
2019-03-01T06:34:38.338Z,-78
2019-03-01T06:35:38.622Z,-76
2019-03-01T06:36:38.357Z,-78
2019-03-01T06:37:38.327Z,-75
2019-03-01T06:38:38.365Z,-76
2019-03-01T06:39:38.315Z,-77
2019-03-01T06:40:38.348Z,-77
2019-03-01T06:41:38.330Z,-78
2019-03-01T06:42:38.352Z,-78
2019-03-01T06:43:38.342Z,-78
2019-03-01T06:44:38.348Z,-78
2019-03-01T06:45:38.354Z,-78
2019-03-01T06:46:38.359Z,-78
2019-03-01T06:47:38.368Z,-77
2019-03-01T06:48:38.319Z,-76
2019-03-01T06:49:38.325Z,-77
2019-03-01T06:50:38.332Z,-76
2019-03-01T06:51:38.343Z,-78
2019-03-01T06:52:38.318Z,-78
2019-03-01T06:53:38.443Z,-78
2019-03-01T06:54:38.314Z,-78
2019-03-01T06:55:38.320Z,-78
2019-03-01T06:56:38.338Z,-78
2019-03-01T06:57:38.367Z,-77
2019-03-01T06:58:38.358Z,-78
2019-03-01T06:59:38.293Z,-78
2019-03-01T07:00:38.314Z,-77
2019-03-01T07:01:38.310Z,-77
2019-03-01T07:02:38.305Z,-78
2019-03-01T07:03:38.296Z,-78
2019-03-01T07:04:38.279Z,-78
2019-03-01T07:05:38.280Z,-78
2019-03-01T07:06:38.307Z,-78
2019-03-01T07:07:38.336Z,-78
2019-03-01T07:08:38.307Z,-77
2019-03-01T07:09:38.282Z,-78
2019-03-01T07:10:38.303Z,-78
2019-03-01T07:11:38.307Z,-77
2019-03-01T07:12:38.313Z,-78
2019-03-01T07:13:38.302Z,-77
2019-03-01T07:14:38.295Z,-78
2019-03-01T07:15:38.286Z,-78
2019-03-01T07:16:38.339Z,-78
2019-03-01T07:17:38.428Z,-78
2019-03-01T07:18:38.292Z,-78
2019-03-01T07:19:38.301Z,-78
2019-03-01T07:20:38.336Z,-77
2019-03-01T07:21:38.352Z,-77
2019-03-01T07:22:38.324Z,-78
2019-03-01T07:23:38.268Z,-78
2019-03-01T07:24:38.279Z,-78
2019-03-01T07:25:38.290Z,-77
2019-03-01T07:26:38.281Z,-76
2019-03-01T07:27:38.390Z,-78
2019-03-01T07:28:38.269Z,-78
2019-03-01T07:29:38.563Z,-75
2019-03-01T07:30:38.406Z,-76
2019-03-01T07:31:38.254Z,-76
2019-03-01T07:32:38.340Z,-74
2019-03-01T07:33:38.366Z,-75
2019-03-01T07:34:38.254Z,-76
2019-03-01T07:35:38.258Z,-75
2019-03-01T07:36:38.291Z,-76
2019-03-01T07:37:38.567Z,-76
2019-03-01T07:38:38.282Z,-76
2019-03-01T07:39:38.252Z,-75
2019-03-01T07:40:38.259Z,-76
2019-03-01T07:41:38.254Z,-76
2019-03-01T07:42:38.338Z,-75
2019-03-01T07:43:38.287Z,-75
2019-03-01T07:44:38.276Z,-75
2019-03-01T07:45:38.251Z,-75
2019-03-01T07:46:38.263Z,-76
2019-03-01T07:47:38.267Z,-75
2019-03-01T07:48:38.805Z,-75
2019-03-01T07:49:38.280Z,-75
2019-03-01T07:50:38.379Z,-75
2019-03-01T07:51:38.229Z,-75
2019-03-01T07:52:38.277Z,-75
2019-03-01T07:53:42.481Z,-75
2019-03-01T07:54:38.240Z,-75
2019-03-01T07:55:38.281Z,-75
2019-03-01T07:56:41.092Z,-76
2019-03-01T07:57:38.406Z,-76
2019-03-01T07:58:38.228Z,-76
2019-03-01T07:59:39.815Z,-76
2019-03-01T08:00:38.214Z,-76
2019-03-01T08:01:38.232Z,-76
2019-03-01T08:02:41.105Z,-76
2019-03-01T08:03:38.211Z,-76
2019-03-01T08:04:38.221Z,-76
2019-03-01T08:05:40.808Z,-75
2019-03-01T08:06:38.236Z,-76
2019-03-01T08:07:38.220Z,-75
2019-03-01T08:08:40.342Z,-75
2019-03-01T08:09:45.903Z,-72
2019-03-01T08:10:38.266Z,-73
2019-03-01T08:11:38.234Z,-76
2019-03-01T08:12:43.702Z,-76
2019-03-01T08:13:38.230Z,-76
2019-03-01T08:14:38.235Z,-74
2019-03-01T08:15:46.147Z,-76
2019-03-01T08:16:38.213Z,-76
2019-03-01T08:17:38.201Z,-76
2019-03-01T08:18:45.441Z,-76
2019-03-01T08:19:38.233Z,-76
2019-03-01T08:20:38.198Z,-76
2019-03-01T08:21:38.223Z,-76
2019-03-01T08:22:49.989Z,-72
2019-03-01T08:23:38.215Z,-76
2019-03-01T08:24:38.221Z,-76
2019-03-01T08:25:38.238Z,-76
2019-03-01T08:26:38.194Z,-77
2019-03-01T08:27:38.311Z,-75
2019-03-01T08:28:38.172Z,-77
2019-03-01T08:29:41.012Z,-76
2019-03-01T08:30:38.189Z,-75
2019-03-01T08:31:38.217Z,-73
2019-03-01T08:32:38.179Z,-75
2019-03-01T08:33:43.897Z,-76
2019-03-01T08:34:38.523Z,-76
2019-03-01T08:35:38.163Z,-75
2019-03-01T08:36:43.949Z,-74
2019-03-01T08:37:38.157Z,-76
2019-03-01T08:38:38.677Z,-74
2019-03-01T08:39:40.985Z,-76
2019-03-01T08:40:38.231Z,-76
2019-03-01T08:41:38.147Z,-76
2019-03-01T08:42:38.150Z,-75
2019-03-01T08:43:38.166Z,-76
2019-03-01T08:44:38.317Z,-76
2019-03-01T08:45:38.591Z,-76
2019-03-01T08:46:38.264Z,-77
2019-03-01T08:47:38.190Z,-76
2019-03-01T08:48:38.173Z,-75
2019-03-01T08:49:38.178Z,-75
2019-03-01T08:50:38.154Z,-76
2019-03-01T08:51:38.199Z,-77
2019-03-01T08:52:41.327Z,-77
2019-03-01T08:53:38.153Z,-76
2019-03-01T08:54:38.194Z,-76
2019-03-01T08:55:40.123Z,-76
2019-03-01T08:56:38.155Z,-77
2019-03-01T08:57:44.960Z,-76
2019-03-01T08:58:42.796Z,-74
2019-03-01T08:59:38.141Z,-77
2019-03-01T09:00:38.381Z,-76
2019-03-01T09:01:38.142Z,-76
2019-03-01T09:02:38.201Z,-76
2019-03-01T09:03:38.222Z,-75
2019-03-01T09:04:38.460Z,-76
2019-03-01T09:05:38.133Z,-77
2019-03-01T09:06:38.120Z,-75
2019-03-01T09:07:38.181Z,-77
2019-03-01T09:08:38.131Z,-75
2019-03-01T09:09:38.138Z,-76
2019-03-01T09:10:38.194Z,-76
2019-03-01T09:11:38.146Z,-77
2019-03-01T09:12:38.538Z,-75
2019-03-01T09:13:38.172Z,-75
2019-03-01T09:14:38.131Z,-77
2019-03-01T09:15:38.153Z,-76
2019-03-01T09:16:38.133Z,-77
2019-03-01T09:17:38.396Z,-76
2019-03-01T09:18:38.156Z,-77
2019-03-01T09:19:38.129Z,-77
2019-03-01T09:20:38.987Z,-77
2019-03-01T09:21:39.907Z,-75
2019-03-01T09:22:38.131Z,-76
2019-03-01T09:23:40.024Z,-76
2019-03-01T09:24:38.137Z,-77
2019-03-01T09:25:38.119Z,-77
2019-03-01T09:26:38.107Z,-74
2019-03-01T09:27:38.212Z,-77
2019-03-01T09:28:40.148Z,-76
2019-03-01T09:29:42.526Z,-76
2019-03-01T09:30:44.733Z,-76
2019-03-01T09:31:38.084Z,-77
2019-03-01T09:32:38.151Z,-76
2019-03-01T09:33:38.088Z,-75
2019-03-01T09:34:38.114Z,-75
2019-03-01T09:35:44.289Z,-76
2019-03-01T09:36:38.150Z,-76
2019-03-01T09:37:38.113Z,-76
2019-03-01T09:38:44.003Z,-75
2019-03-01T09:39:38.133Z,-75
2019-03-01T09:40:38.569Z,-75
2019-03-01T09:41:41.863Z,-77
2019-03-01T09:42:38.098Z,-76
2019-03-01T09:43:38.077Z,-76
2019-03-01T09:44:39.530Z,-75
2019-03-01T09:45:38.123Z,-77
2019-03-01T09:46:38.117Z,-76
2019-03-01T09:47:38.269Z,-76
2019-03-01T09:48:38.077Z,-76
2019-03-01T09:49:38.083Z,-77
2019-03-01T09:50:38.664Z,-75
2019-03-01T09:51:38.072Z,-77
2019-03-01T09:52:38.114Z,-76
2019-03-01T09:53:38.083Z,-76
2019-03-01T09:54:38.904Z,-77
2019-03-01T09:55:38.909Z,-76
2019-03-01T09:56:38.099Z,-75
2019-03-01T09:57:38.077Z,-75
2019-03-01T09:58:38.084Z,-76
2019-03-01T09:59:38.145Z,-76
2019-03-01T10:00:38.049Z,-77
2019-03-01T10:01:38.054Z,-76
2019-03-01T10:02:38.898Z,-76
2019-03-01T10:03:38.234Z,-76
2019-03-01T10:04:38.050Z,-76
2019-03-01T10:05:38.083Z,-76
2019-03-01T10:06:38.886Z,-75
2019-03-01T10:07:38.046Z,-76
2019-03-01T10:08:38.026Z,-76
2019-03-01T10:09:38.059Z,-75
2019-03-01T10:10:38.034Z,-76
2019-03-01T10:11:38.050Z,-76
2019-03-01T10:12:38.052Z,-75
2019-03-01T10:13:38.106Z,-76
2019-03-01T10:14:38.045Z,-76
2019-03-01T10:15:38.017Z,-76
2019-03-01T10:16:38.076Z,-76
2019-03-01T10:17:38.030Z,-75
2019-03-01T10:18:38.029Z,-76
2019-03-01T10:19:38.065Z,-76
2019-03-01T10:20:38.081Z,-75
2019-03-01T10:21:38.034Z,-76
2019-03-01T10:22:38.019Z,-75
2019-03-01T10:23:38.100Z,-75
2019-03-01T10:24:38.188Z,-75
2019-03-01T10:25:38.058Z,-75
2019-03-01T10:26:38.000Z,-75
2019-03-01T10:27:38.099Z,-76
2019-03-01T10:28:38.245Z,-75
2019-03-01T10:29:38.034Z,-76
2019-03-01T10:30:38.016Z,-75
2019-03-01T10:31:38.039Z,-75
2019-03-01T10:32:38.002Z,-75
2019-03-01T10:33:38.036Z,-75
2019-03-01T10:34:38.019Z,-75
2019-03-01T10:35:38.075Z,-75
2019-03-01T10:36:38.106Z,-75
2019-03-01T10:37:38.021Z,-75
2019-03-01T10:38:37.998Z,-75
2019-03-01T10:39:38.018Z,-75
2019-03-01T10:40:37.982Z,-75
2019-03-01T10:41:37.988Z,-75
2019-03-01T10:42:37.990Z,-75
2019-03-01T10:43:38.008Z,-75
2019-03-01T10:44:37.994Z,-75
2019-03-01T10:45:37.980Z,-73
2019-03-01T10:46:38.068Z,-71
2019-03-01T10:47:38.018Z,-71
2019-03-01T10:48:38.012Z,-74
2019-03-01T10:49:37.979Z,-73
2019-03-01T10:50:37.987Z,-73
2019-03-01T10:51:38.030Z,-74
2019-03-01T10:52:37.962Z,-74
2019-03-01T10:53:37.993Z,-72
2019-03-01T10:54:37.977Z,-72
2019-03-01T10:55:37.999Z,-71
2019-03-01T10:56:38.055Z,-73
2019-03-01T10:57:37.975Z,-72
2019-03-01T10:58:37.966Z,-77
2019-03-01T10:59:37.959Z,-78
2019-03-01T11:00:37.980Z,-78
2019-03-01T11:01:37.974Z,-76
2019-03-01T11:02:37.963Z,-77
2019-03-01T11:03:37.965Z,-76
2019-03-01T11:04:37.973Z,-76
2019-03-01T11:05:38.018Z,-76
2019-03-01T11:06:38.019Z,-76
2019-03-01T11:07:37.970Z,-77
2019-03-01T11:08:37.961Z,-78
2019-03-01T11:09:37.953Z,-77
2019-03-01T11:10:37.969Z,-76
2019-03-01T11:11:41.566Z,-74
2019-03-01T11:12:40.586Z,-75
2019-03-01T11:13:38.000Z,-76
2019-03-01T11:14:38.096Z,-77
2019-03-01T11:15:37.963Z,-76
2019-03-01T11:16:37.956Z,-75
2019-03-01T11:17:37.934Z,-79
2019-03-01T11:18:37.976Z,-77
2019-03-01T11:19:37.952Z,-79
2019-03-01T11:20:37.951Z,-78
2019-03-01T11:21:37.928Z,-78
2019-03-01T11:22:37.928Z,-76
2019-03-01T11:23:37.948Z,-79
2019-03-01T11:24:37.936Z,-78
2019-03-01T11:25:38.148Z,-76
2019-03-01T11:26:37.943Z,-76
2019-03-01T11:27:37.943Z,-76
2019-03-01T11:28:37.933Z,-76
2019-03-01T11:29:37.940Z,-78
2019-03-01T11:30:38.366Z,-75
2019-03-01T11:31:37.908Z,-77
2019-03-01T11:32:37.937Z,-77
2019-03-01T11:33:37.923Z,-77
2019-03-01T11:34:37.935Z,-76
2019-03-01T11:35:37.958Z,-79
2019-03-01T11:36:37.924Z,-76
2019-03-01T11:37:37.900Z,-76
2019-03-01T11:38:37.909Z,-76
2019-03-01T11:39:37.936Z,-78
2019-03-01T11:40:37.913Z,-76
2019-03-01T11:41:37.954Z,-76
2019-03-01T11:42:37.913Z,-76
2019-03-01T11:43:37.912Z,-78
2019-03-01T11:44:37.901Z,-77
2019-03-01T11:45:37.986Z,-76
2019-03-01T11:46:37.910Z,-78
2019-03-01T11:47:37.883Z,-76
2019-03-01T11:48:37.917Z,-78
2019-03-01T11:49:37.916Z,-77
2019-03-01T11:50:37.874Z,-77
2019-03-01T11:51:37.895Z,-78
2019-03-01T11:52:37.923Z,-77
2019-03-01T11:53:37.925Z,-75
2019-03-01T11:54:37.895Z,-77
2019-03-01T11:55:37.887Z,-77
2019-03-01T11:56:37.888Z,-77
2019-03-01T11:57:37.874Z,-77
2019-03-01T11:58:37.877Z,-77
2019-03-01T11:59:37.893Z,-79
2019-03-01T12:00:37.887Z,-77
2019-03-01T12:01:37.875Z,-79
2019-03-01T12:02:37.874Z,-77
2019-03-01T12:03:37.941Z,-77
2019-03-01T12:04:37.887Z,-77
2019-03-01T12:05:37.896Z,-77
2019-03-01T12:06:37.901Z,-77
2019-03-01T12:07:37.894Z,-75
2019-03-01T12:08:37.955Z,-77
2019-03-01T12:09:37.867Z,-79
2019-03-01T12:10:37.867Z,-78
2019-03-01T12:11:37.863Z,-77
2019-03-01T12:12:37.877Z,-77
2019-03-01T12:13:37.913Z,-78
2019-03-01T12:14:37.857Z,-76
2019-03-01T12:15:37.883Z,-77
2019-03-01T12:16:37.856Z,-76
2019-03-01T12:17:37.965Z,-77
2019-03-01T12:18:37.848Z,-76
2019-03-01T12:19:37.849Z,-76
2019-03-01T12:20:37.840Z,-78
2019-03-01T12:21:37.864Z,-77
2019-03-01T12:22:37.887Z,-78
2019-03-01T12:23:37.862Z,-76
2019-03-01T12:24:37.849Z,-77
2019-03-01T12:25:37.875Z,-77
2019-03-01T12:26:37.843Z,-76
2019-03-01T12:27:37.850Z,-76
2019-03-01T12:28:37.831Z,-77
2019-03-01T12:29:37.911Z,-79
2019-03-01T12:30:37.834Z,-77
2019-03-01T12:31:37.854Z,-77
2019-03-01T12:32:37.833Z,-76
2019-03-01T12:33:37.840Z,-79
2019-03-01T12:34:37.846Z,-76
2019-03-01T12:35:37.825Z,-79
2019-03-01T12:36:38.741Z,-75
2019-03-01T12:37:37.814Z,-77
2019-03-01T12:38:37.841Z,-78
2019-03-01T12:39:37.827Z,-72
2019-03-01T12:40:37.829Z,-71
2019-03-01T12:41:37.837Z,-73
2019-03-01T12:42:37.847Z,-73
2019-03-01T12:43:37.857Z,-71
2019-03-01T12:44:37.822Z,-73
2019-03-01T12:45:37.964Z,-73
2019-03-01T12:46:37.980Z,-73
2019-03-01T12:47:37.827Z,-72
2019-03-01T12:48:37.803Z,-76
2019-03-01T12:49:37.834Z,-72
2019-03-01T12:50:37.806Z,-72
2019-03-01T12:51:37.874Z,-72
2019-03-01T12:52:37.823Z,-71
2019-03-01T12:53:37.823Z,-72
2019-03-01T12:54:37.791Z,-72
2019-03-01T12:55:37.807Z,-72
2019-03-01T12:56:37.812Z,-72
2019-03-01T12:57:37.811Z,-71
2019-03-01T12:58:38.125Z,-74
2019-03-01T12:59:37.826Z,-71
2019-03-01T13:00:37.861Z,-73
2019-03-01T13:01:37.805Z,-71
2019-03-01T13:02:37.823Z,-71
2019-03-01T13:03:44.896Z,-72
2019-03-01T13:04:37.837Z,-72
2019-03-01T13:05:37.843Z,-73
2019-03-01T13:06:40.160Z,-72
2019-03-01T13:07:37.785Z,-72
2019-03-01T13:08:37.788Z,-74
2019-03-01T13:09:37.813Z,-73
2019-03-01T13:10:41.715Z,-72
2019-03-01T13:11:37.779Z,-73
2019-03-01T13:12:37.817Z,-74
2019-03-01T13:13:39.710Z,-73
2019-03-01T13:14:40.643Z,-71
2019-03-01T13:15:37.809Z,-72
2019-03-01T13:16:37.795Z,-73
2019-03-01T13:17:38.620Z,-74
2019-03-01T13:18:37.803Z,-73
2019-03-01T13:19:37.785Z,-72
2019-03-01T13:20:38.443Z,-72
2019-03-01T13:21:37.774Z,-72
2019-03-01T13:22:37.792Z,-74
2019-03-01T13:23:41.638Z,-73
2019-03-01T13:24:37.798Z,-73
2019-03-01T13:25:37.767Z,-72
2019-03-01T13:26:41.872Z,-73
2019-03-01T13:27:37.819Z,-73
2019-03-01T13:28:37.769Z,-72
2019-03-01T13:29:37.810Z,-72
2019-03-01T13:30:37.771Z,-72
2019-03-01T13:31:37.787Z,-76
2019-03-01T13:32:37.749Z,-73
2019-03-01T13:33:38.632Z,-72
2019-03-01T13:34:37.795Z,-72
2019-03-01T13:35:37.803Z,-74
2019-03-01T13:36:40.876Z,-72
2019-03-01T13:37:37.769Z,-74
2019-03-01T13:38:37.791Z,-73
2019-03-01T13:39:37.776Z,-72
2019-03-01T13:40:37.745Z,-72
2019-03-01T13:41:38.272Z,-77
2019-03-01T13:42:37.771Z,-73
2019-03-01T13:43:37.749Z,-72
2019-03-01T13:44:40.961Z,-72
2019-03-01T13:45:37.760Z,-72
2019-03-01T13:46:37.751Z,-72